Weather at Lommis Airfield

Public forecast

Using degrees Celsius for public forecast. Weather courtesy of forecast.io.

Closest aviation weather report (METAR) to Lommis Airfield

Closest report is Dübendorf Air Base, 16.3 nm (30.1 km) WSW. Retrieved 2021/10/17 23:20 UTC (1 hour ago):

LSMD 172320Z AUTO 00000KT 0450NDV R11/0700V1000U R29/P2000N FG SCT002 06/05 Q1023 RMK

Closest aviation forecast (TAF) to Lommis Airfield

Forecast is more than 6 hours old.

Closest forecast is Dübendorf Air Base, 16.3 nm (30.1 km) WSW. Retrieved 2021/10/17 17:00 UTC (8 hours ago):

TAF LSMD 171625Z 1717/1823 VRB02KT CAVOK BECMG 1719/1721 8000 MIFG NSC BECMG 1721/1723 4000 BR PROB30 1722/1803 2000 PRFG BKN003 BECMG 1803/1806 0300 FG VV002 BECMG 1808/1810 2000 BR BKN005 BECMG 1810/1812 7000 SCT010 BECMG 1812/1814 CAVOK